Time;durP1;ratioP1;P1;durP2;ratioP2;P2;SDS_P1;SDS_P2;PMS_P1;PMS_P2;Temp;Humidity;BMP_temperature;BMP_pressure;BME280_temperature;BME280_humidity;BME280_pressure;Samples;Min_cycle;Max_cycle;Signal;HPM_P1;HPM_P2
2021/07/31 00:01:33;;;;;;;3.42;1.10;;;;;;;;;;5112519;28;20035;-76
2021/07/31 00:03:59;;;;;;;5.78;1.00;;;;;;;;;;5095920;28;20032;-76
2021/07/31 00:06:25;;;;;;;5.07;1.10;;;;;;;;;;5095498;28;20027;-76
2021/07/31 00:08:50;;;;;;;3.95;1.20;;;;;;;;;;5112819;28;20485;-76
2021/07/31 00:11:15;;;;;;;6.95;1.05;;;;;;;;;;5112764;28;20073;-76
2021/07/31 00:13:41;;;;;;;3.25;1.38;;;;;;;;;;5105333;28;20023;-76
2021/07/31 00:16:06;;;;;;;3.60;1.20;;;;;;;;;;5075622;28;20040;-76
2021/07/31 00:18:32;;;;;;;3.88;1.20;;;;;;;;;;5092255;28;20028;-76
2021/07/31 00:20:57;;;;;;;2.00;0.98;;;;;;;;;;5075612;28;20093;-76
2021/07/31 00:23:27;;;;;;;2.17;1.10;;;;;;;;;;5075530;28;20038;-76
2021/07/31 00:25:54;;;;;;;7.90;1.33;;;;;;;;;;5075162;28;20481;-76
2021/07/31 00:28:20;;;;;;;1.90;0.95;;;;;;;;;;5075553;28;20034;-76
2021/07/31 00:30:45;;;;;;;5.38;1.38;;;;;;;;;;5075038;28;20035;-76
2021/07/31 00:33:11;;;;;;;5.35;1.17;;;;;;;;;;5092447;28;20028;-76
2021/07/31 00:35:37;;;;;;;5.35;1.35;;;;;;;;;;5074561;28;20047;-76
2021/07/31 00:38:03;;;;;;;3.63;1.13;;;;;;;;;;5093936;28;20036;-76
2021/07/31 00:40:29;;;;;;;4.78;1.48;;;;;;;;;;5092278;28;20024;-76
2021/07/31 00:43:06;;;;;;;8.70;1.02;;;;;;;;;;5093610;28;20060;-76
2021/07/31 00:45:32;;;;;;;5.75;1.17;;;;;;;;;;5075285;28;20035;-76
2021/07/31 00:47:58;;;;;;;5.78;1.73;;;;;;;;;;5092190;28;20032;-76
2021/07/31 00:50:24;;;;;;;2.63;1.10;;;;;;;;;;5075080;28;20032;-76
2021/07/31 00:52:49;;;;;;;1.88;1.10;;;;;;;;;;5075058;28;20038;-75
2021/07/31 00:55:16;;;;;;;2.88;1.10;;;;;;;;;;5091854;28;20038;-76
2021/07/31 00:57:46;;;;;;;3.22;1.23;;;;;;;;;;5075295;28;20032;-76
2021/07/31 01:00:21;;;;;;;6.70;1.40;;;;;;;;;;5076409;28;20378;-76
2021/07/31 01:02:47;;;;;;;5.32;1.42;;;;;;;;;;5092080;28;20046;-76
2021/07/31 01:05:12;;;;;;;6.22;1.48;;;;;;;;;;5091871;28;20035;-76
2021/07/31 01:07:39;;;;;;;4.15;1.50;;;;;;;;;;5075005;28;20036;-76
2021/07/31 01:10:07;;;;;;;4.15;1.52;;;;;;;;;;5091875;28;20047;-76
2021/07/31 01:12:39;;;;;;;8.00;1.33;;;;;;;;;;5074189;28;20024;-76
2021/07/31 01:15:06;;;;;;;5.90;1.42;;;;;;;;;;5092044;28;20081;-76
2021/07/31 01:17:34;;;;;;;4.63;1.38;;;;;;;;;;5092761;28;20028;-76
2021/07/31 01:20:01;;;;;;;5.72;1.40;;;;;;;;;;5074930;28;20174;-76
2021/07/31 01:22:29;;;;;;;3.25;1.13;;;;;;;;;;5091107;28;20024;-76
2021/07/31 01:25:00;;;;;;;3.78;1.48;;;;;;;;;;5091607;28;20430;-76
2021/07/31 01:27:26;;;;;;;4.72;1.70;;;;;;;;;;5091464;28;20121;-76
2021/07/31 01:29:52;;;;;;;7.82;1.17;;;;;;;;;;5092785;28;20036;-75
2021/07/31 01:32:18;;;;;;;2.95;1.30;;;;;;;;;;5091482;28;20170;-76
2021/07/31 01:34:44;;;;;;;4.05;1.02;;;;;;;;;;5090984;28;20028;-76
2021/07/31 01:37:10;;;;;;;5.93;1.10;;;;;;;;;;5091740;28;20040;-76
2021/07/31 01:39:36;;;;;;;9.45;2.15;;;;;;;;;;5091278;28;20028;-75
2021/07/31 01:42:01;;;;;;;4.78;1.58;;;;;;;;;;5092879;28;20378;-75
2021/07/31 01:44:30;;;;;;;6.75;1.45;;;;;;;;;;5091422;28;20035;-76
2021/07/31 01:46:56;;;;;;;7.22;1.60;;;;;;;;;;5075899;28;20039;-76
2021/07/31 01:49:24;;;;;;;6.35;1.65;;;;;;;;;;5095325;28;20055;-75
2021/07/31 01:51:57;;;;;;;6.30;1.30;;;;;;;;;;5079363;28;20028;-76
2021/07/31 01:54:24;;;;;;;3.67;1.27;;;;;;;;;;5095037;28;20032;-75
2021/07/31 01:56:50;;;;;;;6.95;1.50;;;;;;;;;;5094806;28;20119;-76
2021/07/31 01:59:18;;;;;;;4.28;1.45;;;;;;;;;;5095006;28;20060;-76
2021/07/31 02:01:44;;;;;;;7.20;1.52;;;;;;;;;;5094952;28;20074;-76
2021/07/31 02:04:09;;;;;;;3.95;1.33;;;;;;;;;;5094574;28;20036;-75
2021/07/31 02:06:35;;;;;;;6.57;1.27;;;;;;;;;;5094911;28;20039;-76
2021/07/31 02:09:01;;;;;;;3.78;1.58;;;;;;;;;;5077681;28;20114;-75
2021/07/31 02:11:27;;;;;;;6.85;1.55;;;;;;;;;;5094997;28;20595;-75
2021/07/31 02:14:00;;;;;;;5.05;1.65;;;;;;;;;;5100807;28;20063;-75
2021/07/31 02:16:29;;;;;;;11.02;2.50;;;;;;;;;;5094395;28;20028;-75
2021/07/31 02:18:59;;;;;;;6.25;1.27;;;;;;;;;;5094634;28;20077;-76
2021/07/31 02:21:35;;;;;;;4.63;1.35;;;;;;;;;;5094479;28;20194;-76
2021/07/31 02:24:24;;;;;;;4.00;1.20;;;;;;;;;;5094317;28;20036;-75
2021/07/31 02:27:18;;;;;;;3.70;1.40;;;;;;;;;;5090620;28;20052;-75
2021/07/31 02:30:04;;;;;;;4.30;1.80;;;;;;;;;;5094937;28;20450;-76
2021/07/31 02:32:32;;;;;;;2.70;1.00;;;;;;;;;;5094293;28;20040;-75
2021/07/31 02:34:57;;;;;;;5.35;1.23;;;;;;;;;;5094300;28;20039;-75
2021/07/31 02:37:24;;;;;;;7.05;1.50;;;;;;;;;;5077904;28;20062;-75
2021/07/31 02:39:53;;;;;;;5.05;1.48;;;;;;;;;;5077813;28;20036;-75
2021/07/31 02:42:21;;;;;;;10.70;2.15;;;;;;;;;;5077576;28;20081;-75
2021/07/31 02:44:48;;;;;;;7.15;1.80;;;;;;;;;;5063872;28;20129;-75
2021/07/31 02:47:19;;;;;;;5.10;1.20;;;;;;;;;;5075288;28;20032;-76
2021/07/31 02:49:48;;;;;;;4.90;1.42;;;;;;;;;;5073815;28;20081;-75
2021/07/31 02:52:14;;;;;;;5.15;2.03;;;;;;;;;;5074028;28;20103;-75
2021/07/31 02:54:43;;;;;;;5.35;1.40;;;;;;;;;;5057875;28;20047;-75
2021/07/31 02:57:10;;;;;;;3.63;1.40;;;;;;;;;;5057419;28;20033;-75
2021/07/31 02:59:36;;;;;;;4.68;1.40;;;;;;;;;;5073259;28;20043;-75
2021/07/31 03:02:04;;;;;;;2.50;1.48;;;;;;;;;;5057064;28;20068;-75
2021/07/31 03:04:32;;;;;;;3.60;1.30;;;;;;;;;;5057237;28;20028;-75
2021/07/31 03:07:09;;;;;;;5.50;1.35;;;;;;;;;;5058592;28;20043;-75
2021/07/31 03:09:35;;;;;;;7.72;1.60;;;;;;;;;;5073493;28;20036;-75
2021/07/31 03:12:01;;;;;;;3.33;1.40;;;;;;;;;;5073511;28;20033;-75
2021/07/31 03:14:28;;;;;;;1.75;1.02;;;;;;;;;;5083581;28;20115;-75
2021/07/31 03:16:56;;;;;;;3.50;1.60;;;;;;;;;;5076924;28;20085;-75
2021/07/31 03:19:21;;;;;;;2.70;1.15;;;;;;;;;;5093387;28;20024;-75
2021/07/31 03:21:54;;;;;;;8.13;1.58;;;;;;;;;;5077777;28;20034;-75
2021/07/31 03:24:27;;;;;;;3.03;1.42;;;;;;;;;;5077118;28;20055;-75
2021/07/31 03:26:52;;;;;;;5.53;1.63;;;;;;;;;;5093246;28;20482;-74
2021/07/31 03:29:28;;;;;;;;;;;;;;;;;;5078496;28;20106;-75
2021/07/31 03:31:54;;;;;;;6.82;1.20;;;;;;;;;;5093173;28;19916;-76
2021/07/31 03:34:21;;;;;;;1.65;1.20;;;;;;;;;;5076727;28;20493;-76
2021/07/31 03:36:51;;;;;;;2.20;1.30;;;;;;;;;;5076164;28;20062;-76
2021/07/31 03:39:24;;;;;;;5.40;1.60;;;;;;;;;;5076590;28;20040;-76
2021/07/31 03:41:51;;;;;;;3.95;1.40;;;;;;;;;;5076067;28;20036;-76
2021/07/31 03:44:16;;;;;;;2.33;1.70;;;;;;;;;;5075826;28;20146;-75
2021/07/31 03:46:44;;;;;;;2.78;1.30;;;;;;;;;;5076354;28;20045;-75
2021/07/31 03:49:12;;;;;;;4.85;1.30;;;;;;;;;;5076019;28;20032;-75
2021/07/31 03:51:39;;;;;;;5.10;2.00;;;;;;;;;;5092921;28;20100;-75
2021/07/31 03:54:05;;;;;;;5.47;1.52;;;;;;;;;;5092761;28;20052;-75
2021/07/31 03:56:31;;;;;;;4.50;1.40;;;;;;;;;;5092922;28;20105;-75
2021/07/31 03:59:00;;;;;;;7.65;1.20;;;;;;;;;;5093705;28;20028;-75
2021/07/31 04:01:26;;;;;;;5.50;2.35;;;;;;;;;;5075471;28;20039;-75
2021/07/31 04:03:56;;;;;;;3.42;1.30;;;;;;;;;;5092795;28;20055;-75
2021/07/31 04:06:23;;;;;;;4.25;1.48;;;;;;;;;;5076095;28;20039;-75
2021/07/31 04:09:08;;;;;;;7.60;1.55;;;;;;;;;;5092931;28;20070;-75
2021/07/31 04:11:52;;;;;;;4.43;1.42;;;;;;;;;;5092193;28;20038;-75
2021/07/31 04:14:36;;;;;;;3.75;1.30;;;;;;;;;;5076208;28;20039;-76
2021/07/31 04:17:07;;;;;;;3.17;1.30;;;;;;;;;;5072253;28;20040;-75
2021/07/31 04:19:34;;;;;;;5.95;1.55;;;;;;;;;;5072063;28;20041;-75
2021/07/31 04:22:01;;;;;;;3.70;1.38;;;;;;;;;;5073604;28;20098;-75
2021/07/31 04:24:35;;;;;;;3.97;1.30;;;;;;;;;;5072164;28;20029;-75
2021/07/31 04:27:00;;;;;;;6.25;1.83;;;;;;;;;;5072047;28;20035;-75
2021/07/31 04:29:26;;;;;;;4.47;1.60;;;;;;;;;;5073465;28;20041;-75
2021/07/31 04:31:52;;;;;;;3.42;1.42;;;;;;;;;;5054834;28;20041;-75
2021/07/31 04:34:18;;;;;;;5.03;1.30;;;;;;;;;;5055234;28;20032;-75
2021/07/31 04:36:44;;;;;;;4.05;1.52;;;;;;;;;;5073080;28;20025;-75
2021/07/31 04:39:10;;;;;;;5.15;1.60;;;;;;;;;;5071841;28;20091;-75
2021/07/31 04:41:37;;;;;;;6.00;1.48;;;;;;;;;;5055580;28;20036;-75
2021/07/31 04:44:04;;;;;;;9.25;1.52;;;;;;;;;;5067386;28;20485;-75
2021/07/31 04:46:30;;;;;;;8.07;1.73;;;;;;;;;;5075179;28;20044;-75
2021/07/31 04:48:55;;;;;;;1.80;1.20;;;;;;;;;;5092253;28;20617;-75
2021/07/31 04:51:21;;;;;;;4.18;1.80;;;;;;;;;;5075245;28;20509;-75
2021/07/31 04:53:48;;;;;;;2.17;1.23;;;;;;;;;;5075065;28;20500;-76
2021/07/31 04:56:14;;;;;;;2.05;1.20;;;;;;;;;;5091743;28;20036;-75
2021/07/31 04:58:39;;;;;;;2.88;1.00;;;;;;;;;;5093394;28;20032;-75
2021/07/31 05:01:05;;;;;;;6.00;1.30;;;;;;;;;;5075063;28;20526;-76
2021/07/31 05:03:31;;;;;;;3.25;1.40;;;;;;;;;;5075117;28;20032;-75
2021/07/31 05:05:57;;;;;;;4.05;1.35;;;;;;;;;;5072484;28;20046;-75
2021/07/31 05:08:23;;;;;;;6.07;1.25;;;;;;;;;;5091776;28;20035;-75
2021/07/31 05:10:50;;;;;;;3.13;1.15;;;;;;;;;;5091354;28;20043;-75
2021/07/31 05:13:16;;;;;;;7.18;1.42;;;;;;;;;;5091668;28;20032;-75
2021/07/31 05:15:44;;;;;;;4.75;1.20;;;;;;;;;;5074977;28;20508;-75
2021/07/31 05:18:11;;;;;;;6.10;1.60;;;;;;;;;;5074612;28;20112;-75
2021/07/31 05:20:43;;;;;;;2.28;1.08;;;;;;;;;;5093024;28;20032;-75
2021/07/31 05:23:09;;;;;;;8.60;1.50;;;;;;;;;;5078168;28;20074;-75
2021/07/31 05:25:35;;;;;;;5.65;1.85;;;;;;;;;;5095660;28;20032;-76
2021/07/31 05:28:01;;;;;;;3.95;1.13;;;;;;;;;;5095486;28;20047;-75
2021/07/31 05:30:26;;;;;;;5.45;1.38;;;;;;;;;;5096761;28;20024;-75
2021/07/31 05:32:52;;;;;;;2.50;1.20;;;;;;;;;;5078303;28;20036;-75
2021/07/31 05:35:19;;;;;;;6.07;1.52;;;;;;;;;;5078757;28;20028;-75
2021/07/31 05:37:44;;;;;;;7.38;1.55;;;;;;;;;;5078449;28;20036;-76
2021/07/31 05:40:11;;;;;;;3.42;1.23;;;;;;;;;;5095473;28;20039;-75
2021/07/31 05:42:38;;;;;;;6.05;1.75;;;;;;;;;;5095161;28;20043;-75
2021/07/31 05:45:05;;;;;;;2.97;1.20;;;;;;;;;;5095291;28;20497;-75
2021/07/31 05:47:31;;;;;;;7.13;1.10;;;;;;;;;;5095450;28;20043;-76
2021/07/31 05:49:58;;;;;;;3.70;1.08;;;;;;;;;;5079479;28;20401;-78
2021/07/31 05:52:28;;;;;;;2.28;1.10;;;;;;;;;;5080803;28;20148;-76
2021/07/31 05:54:55;;;;;;;3.53;1.05;;;;;;;;;;5095373;28;20164;-76
2021/07/31 05:57:21;;;;;;;2.63;1.00;;;;;;;;;;5078478;28;20378;-77
2021/07/31 05:59:46;;;;;;;3.22;1.20;;;;;;;;;;5078650;28;20042;-77
2021/07/31 06:02:12;;;;;;;4.35;1.50;;;;;;;;;;5096844;28;20115;-76
2021/07/31 06:04:38;;;;;;;2.78;1.30;;;;;;;;;;5078100;28;20035;-76
2021/07/31 06:07:06;;;;;;;8.18;1.23;;;;;;;;;;5097542;28;20370;-77
2021/07/31 06:09:38;;;;;;;3.10;1.33;;;;;;;;;;5096337;28;20032;-76
2021/07/31 06:12:05;;;;;;;4.00;1.20;;;;;;;;;;5080863;28;20127;-77
2021/07/31 06:14:33;;;;;;;6.43;1.20;;;;;;;;;;5078999;28;20035;-77
2021/07/31 06:17:00;;;;;;;3.47;1.10;;;;;;;;;;5075473;28;20035;-77
2021/07/31 06:19:27;;;;;;;3.70;1.25;;;;;;;;;;5059156;28;20028;-78
2021/07/31 06:21:53;;;;;;;7.50;1.25;;;;;;;;;;5082069;28;20381;-80
2021/07/31 06:24:19;;;;;;;2.35;1.08;;;;;;;;;;5060455;28;20119;-76
2021/07/31 06:26:44;;;;;;;3.30;1.38;;;;;;;;;;5075405;28;20037;-76
2021/07/31 06:29:10;;;;;;;3.50;1.40;;;;;;;;;;5074216;28;20466;-76
2021/07/31 06:31:35;;;;;;;6.32;1.20;;;;;;;;;;5074439;28;20052;-76
2021/07/31 06:34:00;;;;;;;6.78;1.42;;;;;;;;;;5073880;28;20037;-76
2021/07/31 06:36:26;;;;;;;1.88;1.10;;;;;;;;;;5057879;28;20210;-76
2021/07/31 06:38:52;;;;;;;4.28;1.00;;;;;;;;;;5075465;28;20058;-77
2021/07/31 06:41:17;;;;;;;8.43;1.98;;;;;;;;;;5057720;28;20448;-76
2021/07/31 06:43:43;;;;;;;5.90;1.42;;;;;;;;;;5083587;28;20048;-77
2021/07/31 06:46:16;;;;;;;5.60;1.10;;;;;;;;;;5094253;28;20473;-76
2021/07/31 06:48:42;;;;;;;2.67;1.30;;;;;;;;;;5077452;28;20088;-76
2021/07/31 06:51:09;;;;;;;2.20;1.00;;;;;;;;;;5077445;28;20027;-76
2021/07/31 06:53:35;;;;;;;10.75;1.23;;;;;;;;;;5077217;28;20043;-77
2021/07/31 06:56:01;;;;;;;4.90;1.00;;;;;;;;;;5094133;28;20126;-76
2021/07/31 06:58:27;;;;;;;3.80;0.95;;;;;;;;;;5095447;28;20035;-77
2021/07/31 07:00:52;;;;;;;4.53;1.20;;;;;;;;;;5095237;28;20085;-77
2021/07/31 07:03:18;;;;;;;2.47;1.10;;;;;;;;;;5077190;28;20036;-78
2021/07/31 07:05:44;;;;;;;5.00;1.08;;;;;;;;;;5076941;28;20097;-77
2021/07/31 07:08:09;;;;;;;4.13;1.13;;;;;;;;;;5094214;28;20471;-76
2021/07/31 07:10:35;;;;;;;4.30;1.40;;;;;;;;;;5076999;28;20127;-77
2021/07/31 07:13:00;;;;;;;2.45;1.08;;;;;;;;;;5090312;28;20020;-77
2021/07/31 07:15:28;;;;;;;5.30;1.10;;;;;;;;;;5073367;28;20036;-77
2021/07/31 07:17:57;;;;;;;6.43;1.65;;;;;;;;;;5073303;28;20036;-77
2021/07/31 07:20:24;;;;;;;6.60;1.20;;;;;;;;;;5073013;28;20032;-77
2021/07/31 07:22:51;;;;;;;7.28;1.83;;;;;;;;;;5073263;28;20036;-77
2021/07/31 07:25:18;;;;;;;7.70;1.52;;;;;;;;;;5073291;28;20119;-77
2021/07/31 07:27:43;;;;;;;4.28;0.90;;;;;;;;;;5074427;28;20119;-77
2021/07/31 07:30:10;;;;;;;3.92;1.10;;;;;;;;;;5073143;28;20135;-77
2021/07/31 07:32:38;;;;;;;3.58;1.30;;;;;;;;;;5056650;28;20045;-77
2021/07/31 07:35:06;;;;;;;5.07;1.08;;;;;;;;;;5072841;28;20033;-76
2021/07/31 07:37:33;;;;;;;3.40;1.15;;;;;;;;;;5056431;28;20086;-76
2021/07/31 07:39:59;;;;;;;1.83;0.90;;;;;;;;;;5056332;28;20040;-76
2021/07/31 07:42:25;;;;;;;8.30;1.35;;;;;;;;;;5072946;28;20029;-77
2021/07/31 07:44:50;;;;;;;5.20;2.35;;;;;;;;;;5110577;28;20530;-77
2021/07/31 07:47:16;;;;;;;3.28;1.45;;;;;;;;;;5113757;28;20031;-77
2021/07/31 07:49:41;;;;;;;6.20;1.00;;;;;;;;;;5114531;28;20035;-77
2021/07/31 07:52:07;;;;;;;3.38;1.00;;;;;;;;;;5114566;28;20477;-77
2021/07/31 07:54:33;;;;;;;3.40;1.08;;;;;;;;;;5096308;28;20035;-77
2021/07/31 07:56:59;;;;;;;3.40;1.02;;;;;;;;;;5096331;28;20038;-77
2021/07/31 07:59:24;;;;;;;4.47;0.80;;;;;;;;;;5113659;28;20035;-77
2021/07/31 08:01:50;;;;;;;4.07;0.80;;;;;;;;;;5096429;28;20024;-77
2021/07/31 08:04:16;;;;;;;4.53;1.05;;;;;;;;;;5114414;28;20081;-77
2021/07/31 08:06:41;;;;;;;1.05;0.70;;;;;;;;;;5096405;28;20035;-77
2021/07/31 08:09:07;;;;;;;3.05;1.02;;;;;;;;;;5113290;28;20112;-77
2021/07/31 08:11:34;;;;;;;3.45;1.08;;;;;;;;;;5096224;28;20469;-77
2021/07/31 08:14:01;;;;;;;3.92;1.17;;;;;;;;;;5110679;28;20046;-77
2021/07/31 08:16:27;;;;;;;2.17;0.88;;;;;;;;;;5094011;28;20074;-78
2021/07/31 08:18:53;;;;;;;1.52;1.02;;;;;;;;;;5092512;28;20482;-78
2021/07/31 08:21:18;;;;;;;5.40;1.15;;;;;;;;;;5092481;28;20081;-77
2021/07/31 08:23:44;;;;;;;1.75;0.98;;;;;;;;;;5093519;28;20050;-77
2021/07/31 08:26:15;;;;;;;5.10;1.20;;;;;;;;;;5094009;28;20032;-77
2021/07/31 08:28:41;;;;;;;1.63;0.73;;;;;;;;;;5092393;28;20111;-77
2021/07/31 08:31:11;;;;;;;4.18;1.13;;;;;;;;;;5092367;28;20427;-77
2021/07/31 08:33:36;;;;;;;4.03;1.02;;;;;;;;;;5092519;28;20468;-77
2021/07/31 08:36:03;;;;;;;5.47;1.17;;;;;;;;;;5093611;28;20059;-77
2021/07/31 08:38:29;;;;;;;1.45;0.90;;;;;;;;;;5092515;28;20401;-77
2021/07/31 08:40:54;;;;;;;3.00;1.10;;;;;;;;;;5075557;28;20165;-76
2021/07/31 08:43:20;;;;;;;4.30;1.23;;;;;;;;;;5093524;28;20123;-77
2021/07/31 08:45:47;;;;;;;5.60;1.10;;;;;;;;;;5075252;28;20044;-77
2021/07/31 08:48:14;;;;;;;4.07;1.20;;;;;;;;;;5092404;28;20032;-77
2021/07/31 08:50:40;;;;;;;7.38;1.35;;;;;;;;;;5092227;28;20032;-77
2021/07/31 08:53:06;;;;;;;2.38;1.20;;;;;;;;;;5093185;28;20056;-77
2021/07/31 08:55:32;;;;;;;3.85;1.45;;;;;;;;;;5092149;28;20035;-76
2021/07/31 08:58:01;;;;;;;7.07;1.30;;;;;;;;;;5091626;28;20040;-77
2021/07/31 09:00:27;;;;;;;3.22;1.08;;;;;;;;;;5075062;28;20499;-77
2021/07/31 09:02:53;;;;;;;2.95;1.45;;;;;;;;;;5075006;28;20065;-76
2021/07/31 09:05:32;;;;;;;2.47;1.00;;;;;;;;;;5093202;28;20032;-76
2021/07/31 09:08:02;;;;;;;4.50;1.33;;;;;;;;;;5092097;28;20089;-76
2021/07/31 09:10:29;;;;;;;4.15;1.42;;;;;;;;;;5075157;28;20036;-76
2021/07/31 09:12:56;;;;;;;3.05;1.15;;;;;;;;;;5092949;28;20065;-76
2021/07/31 09:15:38;;;;;;;4.32;0.88;;;;;;;;;;5076901;28;20031;-76
2021/07/31 09:18:25;;;;;;;5.47;0.90;;;;;;;;;;5113376;28;20032;-76
2021/07/31 09:21:01;;;;;;;3.42;1.08;;;;;;;;;;5095221;28;20036;-77
2021/07/31 09:23:44;;;;;;;4.15;0.90;;;;;;;;;;5094898;28;20085;-77
2021/07/31 09:26:10;;;;;;;3.97;1.30;;;;;;;;;;5094980;28;20040;-77
2021/07/31 09:28:40;;;;;;;2.30;0.98;;;;;;;;;;5094907;28;20035;-79
2021/07/31 09:31:13;;;;;;;6.05;1.33;;;;;;;;;;5095016;28;20043;-77
2021/07/31 09:33:44;;;;;;;7.43;1.00;;;;;;;;;;5095253;28;20032;-77
2021/07/31 09:36:10;;;;;;;3.25;1.33;;;;;;;;;;5113373;28;20484;-78
2021/07/31 09:38:40;;;;;;;3.58;1.10;;;;;;;;;;5096965;28;20114;-77
2021/07/31 09:41:15;;;;;;;2.90;0.90;;;;;;;;;;5095979;28;20060;-77
2021/07/31 09:43:58;;;;;;;3.28;1.20;;;;;;;;;;5113314;28;20523;-78
2021/07/31 09:46:39;;;;;;;2.85;1.00;;;;;;;;;;5099194;28;20051;-77
2021/07/31 09:49:06;;;;;;;4.13;0.90;;;;;;;;;;5082816;28;20059;-80
2021/07/31 09:51:40;;;;;;;2.03;0.90;;;;;;;;;;5089857;28;20036;-77
2021/07/31 09:54:10;;;;;;;3.90;1.42;;;;;;;;;;5100549;28;20035;-83
2021/07/31 09:56:50;;;;;;;2.30;0.90;;;;;;;;;;5088287;28;20032;-80
2021/07/31 09:59:18;;;;;;;2.50;1.20;;;;;;;;;;5090402;28;20413;-81
2021/07/31 10:02:03;;;;;;;3.83;0.77;;;;;;;;;;5089230;28;20040;-80
2021/07/31 10:04:32;;;;;;;1.45;0.95;;;;;;;;;;5083251;28;20064;-78
2021/07/31 10:07:01;;;;;;;6.15;1.23;;;;;;;;;;5100871;28;20501;-80
2021/07/31 10:09:27;;;;;;;3.25;0.80;;;;;;;;;;5088214;28;20043;-81
2021/07/31 10:11:52;;;;;;;5.75;1.00;;;;;;;;;;5088677;28;20032;-80
2021/07/31 10:14:18;;;;;;;3.28;0.90;;;;;;;;;;5103600;28;20062;-80
2021/07/31 10:16:47;;;;;;;4.95;1.17;;;;;;;;;;5087064;28;20075;-81
2021/07/31 10:19:13;;;;;;;1.00;0.55;;;;;;;;;;5103899;28;20096;-80
2021/07/31 10:21:41;;;;;;;4.40;0.70;;;;;;;;;;5085866;28;20071;-80
2021/07/31 10:24:08;;;;;;;3.25;0.98;;;;;;;;;;5085923;28;20135;-80
2021/07/31 10:26:36;;;;;;;3.67;0.82;;;;;;;;;;5104850;28;20071;-80
2021/07/31 10:29:32;;;;;;;8.30;0.82;;;;;;;;;;5103415;28;20051;-81
2021/07/31 10:32:21;;;;;;;;;;;;;;;;;;5085707;28;20046;-81
2021/07/31 10:34:48;;;;;;;2.25;0.77;;;;;;;;;;5098450;28;20457;-82
2021/07/31 10:40:02;;;;;;;3.00;0.90;;;;;;;;;;5101868;28;20139;-85
2021/07/31 10:42:50;;;;;;;4.55;1.02;;;;;;;;;;5085735;28;20092;-81
2021/07/31 10:45:16;;;;;;;2.35;0.88;;;;;;;;;;5083833;28;20512;-83
2021/07/31 10:47:45;;;;;;;1.02;0.80;;;;;;;;;;5085445;28;20036;-83
2021/07/31 10:50:23;;;;;;;2.20;1.10;;;;;;;;;;5083868;28;20105;-83
2021/07/31 10:52:52;;;;;;;6.32;0.80;;;;;;;;;;5084023;28;20062;-82
2021/07/31 10:55:19;;;;;;;2.78;1.20;;;;;;;;;;5083900;28;20040;-84
2021/07/31 10:57:53;;;;;;;5.05;0.82;;;;;;;;;;5084338;28;20035;-83
2021/07/31 11:00:22;;;;;;;5.57;2.38;;;;;;;;;;5100976;28;20061;-83
2021/07/31 11:02:48;;;;;;;3.25;1.00;;;;;;;;;;5083991;28;20039;-83
2021/07/31 11:05:14;;;;;;;4.00;0.90;;;;;;;;;;5082781;28;20085;-79
2021/07/31 11:07:58;;;;;;;3.10;0.98;;;;;;;;;;5072832;28;20028;-79
2021/07/31 11:10:39;;;;;;;6.95;1.35;;;;;;;;;;5059398;28;20043;-77
2021/07/31 11:13:06;;;;;;;1.27;0.63;;;;;;;;;;5060533;28;20032;-78
2021/07/31 11:15:32;;;;;;;5.65;1.08;;;;;;;;;;5060677;28;20036;-78
2021/07/31 11:17:59;;;;;;;6.88;2.25;;;;;;;;;;5061118;28;20077;-78
2021/07/31 11:20:32;;;;;;;7.72;1.02;;;;;;;;;;5076447;28;20089;-78
2021/07/31 11:23:05;;;;;;;2.90;1.33;;;;;;;;;;5060884;28;20409;-78
2021/07/31 11:25:31;;;;;;;2.80;1.08;;;;;;;;;;5060476;28;20044;-78
2021/07/31 11:28:10;;;;;;;3.42;1.27;;;;;;;;;;5060687;28;20029;-79
2021/07/31 11:30:45;;;;;;;2.92;0.98;;;;;;;;;;5058979;28;20042;-78
2021/07/31 11:33:26;;;;;;;3.17;1.20;;;;;;;;;;5059763;28;20082;-78
2021/07/31 11:35:56;;;;;;;2.88;1.13;;;;;;;;;;5075504;28;20072;-78
2021/07/31 11:38:28;;;;;;;6.88;1.10;;;;;;;;;;5059428;28;20033;-78
2021/07/31 11:41:11;;;;;;;4.43;1.10;;;;;;;;;;5058219;28;20037;-78
2021/07/31 11:43:46;;;;;;;4.80;1.00;;;;;;;;;;5061933;28;20028;-79
2021/07/31 11:46:24;;;;;;;2.50;0.98;;;;;;;;;;5079238;28;20139;-79
2021/07/31 11:48:49;;;;;;;4.00;0.93;;;;;;;;;;5087477;28;20033;-79
2021/07/31 11:51:15;;;;;;;4.35;1.08;;;;;;;;;;5087128;28;20071;-80
2021/07/31 11:53:40;;;;;;;5.72;1.10;;;;;;;;;;5086874;28;20040;-80
2021/07/31 11:56:19;;;;;;;5.93;1.08;;;;;;;;;;5069837;28;20090;-80
2021/07/31 11:58:46;;;;;;;3.83;0.90;;;;;;;;;;5083932;28;20059;-80
2021/07/31 12:01:12;;;;;;;5.22;0.98;;;;;;;;;;5069666;28;20043;-79
2021/07/31 12:03:49;;;;;;;5.60;1.45;;;;;;;;;;5069870;28;20041;-79
2021/07/31 12:06:34;;;;;;;8.63;1.45;;;;;;;;;;5074198;28;20044;-76
2021/07/31 12:09:16;;;;;;;4.60;1.13;;;;;;;;;;5072509;28;20036;-76
2021/07/31 12:11:43;;;;;;;1.27;0.90;;;;;;;;;;5056088;28;20040;-75
2021/07/31 12:14:40;;;;;;;2.60;1.00;;;;;;;;;;5055767;28;20119;-75
2021/07/31 12:17:24;;;;;;;4.50;1.10;;;;;;;;;;5089341;28;20039;-75
2021/07/31 12:19:52;;;;;;;2.75;1.52;;;;;;;;;;5075449;28;20036;-76
2021/07/31 12:22:21;;;;;;;10.73;1.50;;;;;;;;;;5093342;28;20493;-76
2021/07/31 12:25:17;;;;;;;6.35;1.13;;;;;;;;;;5093787;28;20073;-76
2021/07/31 12:27:49;;;;;;;5.75;1.27;;;;;;;;;;5093023;28;20067;-74
2021/07/31 12:30:39;;;;;;;3.58;1.10;;;;;;;;;;5076093;28;20089;-75
2021/07/31 12:33:05;;;;;;;4.00;1.00;;;;;;;;;;5091930;28;20466;-77
2021/07/31 12:35:37;;;;;;;3.70;1.25;;;;;;;;;;5093796;28;20043;-76
2021/07/31 12:38:13;;;;;;;1.50;0.73;;;;;;;;;;5075622;28;20131;-76
2021/07/31 12:40:40;;;;;;;7.25;1.23;;;;;;;;;;5093370;28;20039;-76
2021/07/31 12:43:13;;;;;;;2.30;0.85;;;;;;;;;;5093970;28;20028;-77
2021/07/31 12:45:44;;;;;;;8.63;1.40;;;;;;;;;;5079821;28;20046;-77
2021/07/31 12:48:11;;;;;;;4.15;1.33;;;;;;;;;;5113470;28;20080;-77
2021/07/31 12:50:38;;;;;;;1.85;1.00;;;;;;;;;;5097052;28;20035;-77
2021/07/31 12:53:03;;;;;;;3.15;0.95;;;;;;;;;;5113244;28;20626;-77
2021/07/31 12:55:29;;;;;;;3.80;0.85;;;;;;;;;;5096334;28;20105;-77
2021/07/31 12:57:55;;;;;;;2.08;0.90;;;;;;;;;;5096227;28;20042;-77
2021/07/31 13:00:21;;;;;;;2.08;1.25;;;;;;;;;;5114297;28;20456;-77
2021/07/31 13:02:48;;;;;;;10.52;1.10;;;;;;;;;;5096756;28;20063;-77
2021/07/31 13:05:14;;;;;;;2.20;0.90;;;;;;;;;;5096652;28;20034;-77
2021/07/31 13:07:40;;;;;;;2.50;0.70;;;;;;;;;;5113549;28;20059;-77
2021/07/31 13:10:06;;;;;;;3.13;0.93;;;;;;;;;;5114890;28;20397;-77
2021/07/31 13:12:33;;;;;;;1.25;0.80;;;;;;;;;;5097101;28;20030;-77
2021/07/31 13:14:58;;;;;;;4.60;0.90;;;;;;;;;;5096626;28;20085;-77
2021/07/31 13:17:24;;;;;;;26.38;1.63;;;;;;;;;;5096559;28;20489;-77
2021/07/31 13:19:49;;;;;;;2.25;0.82;;;;;;;;;;5097341;28;20042;-77
2021/07/31 13:22:15;;;;;;;3.33;1.98;;;;;;;;;;5113960;28;20023;-77
2021/07/31 13:24:41;;;;;;;1.45;0.55;;;;;;;;;;5113410;28;20028;-77
2021/07/31 13:27:06;;;;;;;5.15;1.13;;;;;;;;;;5113369;28;20040;-77
2021/07/31 13:29:32;;;;;;;3.10;0.90;;;;;;;;;;5114671;28;20063;-77
2021/07/31 13:31:59;;;;;;;3.70;0.82;;;;;;;;;;5114735;28;20134;-77
2021/07/31 13:34:25;;;;;;;4.53;1.02;;;;;;;;;;5113401;28;20494;-77
2021/07/31 13:36:52;;;;;;;3.38;1.00;;;;;;;;;;5096539;28;20122;-77
2021/07/31 13:39:20;;;;;;;2.40;0.65;;;;;;;;;;5114151;28;20091;-77
2021/07/31 13:41:47;;;;;;;2.13;1.17;;;;;;;;;;5114988;28;20330;-79
2021/07/31 13:44:16;;;;;;;1.30;0.80;;;;;;;;;;5117595;28;20092;-78
2021/07/31 13:46:45;;;;;;;1.95;0.88;;;;;;;;;;5102471;28;20035;-78
2021/07/31 13:49:11;;;;;;;2.67;0.80;;;;;;;;;;5099337;28;20057;-78
2021/07/31 13:51:37;;;;;;;1.67;0.80;;;;;;;;;;5103709;28;20043;-78
2021/07/31 13:54:02;;;;;;;4.25;1.15;;;;;;;;;;5120221;28;20028;-78
2021/07/31 13:56:32;;;;;;;5.35;1.13;;;;;;;;;;5104213;28;20389;-78
2021/07/31 13:58:59;;;;;;;5.65;1.00;;;;;;;;;;5120440;28;20059;-78
2021/07/31 14:01:24;;;;;;;4.30;1.17;;;;;;;;;;5121107;28;20073;-78
2021/07/31 14:03:50;;;;;;;1.75;0.80;;;;;;;;;;5120958;28;20036;-78
2021/07/31 14:06:16;;;;;;;3.72;0.85;;;;;;;;;;5102929;28;20035;-78
2021/07/31 14:08:41;;;;;;;4.85;1.30;;;;;;;;;;5103528;28;20035;-78
2021/07/31 14:11:07;;;;;;;1.45;0.75;;;;;;;;;;5104254;28;20027;-78
2021/07/31 14:13:32;;;;;;;1.13;0.75;;;;;;;;;;5120963;28;20027;-78
2021/07/31 14:15:58;;;;;;;2.28;0.85;;;;;;;;;;5089959;28;20041;-78
2021/07/31 14:18:24;;;;;;;1.98;0.82;;;;;;;;;;5101278;28;20089;-78
2021/07/31 14:20:50;;;;;;;2.70;0.77;;;;;;;;;;5100782;28;20107;-78
2021/07/31 14:23:15;;;;;;;1.88;0.80;;;;;;;;;;5100414;28;20059;-78
2021/07/31 14:25:43;;;;;;;1.52;0.80;;;;;;;;;;5097954;28;20044;-78
2021/07/31 14:28:10;;;;;;;2.58;0.90;;;;;;;;;;5080805;28;20047;-78
2021/07/31 14:30:36;;;;;;;6.60;1.10;;;;;;;;;;5095332;28;20036;-76
2021/07/31 14:33:02;;;;;;;1.00;0.65;;;;;;;;;;5095243;28;20478;-78
2021/07/31 14:35:29;;;;;;;10.52;0.90;;;;;;;;;;5080531;28;20135;-78
2021/07/31 14:37:55;;;;;;;1.25;0.70;;;;;;;;;;5080272;28;20031;-78
2021/07/31 14:40:21;;;;;;;3.38;0.80;;;;;;;;;;5099109;28;20479;-77
2021/07/31 14:42:46;;;;;;;3.25;1.08;;;;;;;;;;5079623;28;20032;-78
2021/07/31 14:45:12;;;;;;;2.47;0.80;;;;;;;;;;5089152;28;20029;-78
2021/07/31 14:47:38;;;;;;;1.65;0.90;;;;;;;;;;5059942;28;20519;-77
2021/07/31 14:50:04;;;;;;;9.20;1.08;;;;;;;;;;5076625;28;20040;-78
2021/07/31 14:52:32;;;;;;;2.03;0.90;;;;;;;;;;5060429;28;20043;-79
2021/07/31 14:55:02;;;;;;;4.10;1.00;;;;;;;;;;5080036;28;20028;-79